Time;durP1;ratioP1;P1;durP2;ratioP2;P2;SDS_P1;SDS_P2;PMS_P1;PMS_P2;Temp;Humidity;BMP_temperature;BMP_pressure;BME280_temperature;BME280_humidity;BME280_pressure;Samples;Min_cycle;Max_cycle;Signal;HPM_P1;HPM_P2
2022/11/30 00:00:34;;;;;;;19.25;10.40;;;;;;;6.74;98.65;100026.31;5033168;28;20053;-43
2022/11/30 00:03:00;;;;;;;20.98;10.10;;;;;;;6.83;96.40;100017.34;5033144;28;20033;-43
2022/11/30 00:05:26;;;;;;;22.52;10.10;;;;;;;6.70;94.61;100026.81;5033141;28;20032;-43
2022/11/30 00:07:53;;;;;;;18.08;9.85;;;;;;;6.58;96.35;100026.38;5032494;28;20470;-43
2022/11/30 00:10:20;;;;;;;17.83;10.65;;;;;;;6.49;97.08;100022.09;5032950;28;20408;-42
2022/11/30 00:12:45;;;;;;;18.77;10.05;;;;;;;6.59;97.67;100020.91;5032858;28;20026;-43
2022/11/30 00:15:13;;;;;;;19.67;10.93;;;;;;;6.74;96.13;100023.66;5032948;28;20037;-43
2022/11/30 00:17:40;;;;;;;22.33;12.40;;;;;;;6.81;96.17;100029.09;5033188;28;20073;-43
2022/11/30 00:20:07;;;;;;;22.40;11.98;;;;;;;6.79;95.56;100023.16;5032971;28;20172;-43
2022/11/30 00:22:32;;;;;;;21.20;11.23;;;;;;;6.69;95.60;100033.94;5032923;28;20513;-43
2022/11/30 00:24:59;;;;;;;21.33;11.63;;;;;;;6.69;97.03;100025.19;5032890;28;20096;-42
2022/11/30 00:27:26;;;;;;;22.67;12.25;;;;;;;6.73;96.91;100019.38;5032722;28;20052;-43
2022/11/30 00:29:51;;;;;;;26.83;14.32;;;;;;;6.86;97.07;100024.13;5032813;28;20107;-43
2022/11/30 00:32:17;;;;;;;25.02;14.32;;;;;;;6.91;97.12;100024.44;5032573;28;20474;-43
2022/11/30 00:34:42;;;;;;;27.63;14.60;;;;;;;6.99;96.62;100027.03;5032853;28;20048;-43
2022/11/30 00:37:07;;;;;;;22.55;12.88;;;;;;;7.12;95.12;100022.97;5032357;28;20080;-43
2022/11/30 00:39:33;;;;;;;21.92;12.18;;;;;;;6.91;94.71;100020.94;5032385;28;20140;-43
2022/11/30 00:41:58;;;;;;;22.60;12.70;;;;;;;6.90;95.18;100020.13;5032540;28;20417;-43
2022/11/30 00:44:23;;;;;;;19.95;11.90;;;;;;;6.76;95.47;100015.53;5032314;28;20079;-43
2022/11/30 00:46:49;;;;;;;26.02;13.18;;;;;;;6.80;95.62;100014.22;5032542;28;20017;-43
2022/11/30 00:49:14;;;;;;;21.45;12.40;;;;;;;6.70;95.98;100017.09;5032198;28;20473;-41
2022/11/30 00:51:40;;;;;;;18.60;10.63;;;;;;;6.74;96.94;100020.19;5032365;28;20136;-42
2022/11/30 00:54:05;;;;;;;15.20;9.20;;;;;;;6.67;96.23;100004.19;5032429;28;20044;-41
2022/11/30 00:56:30;;;;;;;16.13;9.25;;;;;;;6.78;96.26;100005.63;5032138;28;20116;-41
2022/11/30 00:58:56;;;;;;;18.55;10.55;;;;;;;6.73;96.88;100006.13;5032129;28;20124;-41
2022/11/30 01:01:21;;;;;;;18.00;10.38;;;;;;;6.79;98.46;100018.66;5032137;28;20025;-41
2022/11/30 01:03:47;;;;;;;15.48;9.18;;;;;;;6.83;96.41;100017.34;5031963;28;20470;-41
2022/11/30 01:06:13;;;;;;;16.10;9.50;;;;;;;6.82;96.39;100005.13;5031927;28;20036;-42
2022/11/30 01:08:38;;;;;;;15.07;8.73;;;;;;;6.83;95.99;99998.84;5032138;28;20033;-41
2022/11/30 01:11:11;;;;;;;15.43;8.80;;;;;;;6.90;97.54;100006.06;5032012;28;20386;-43
2022/11/30 01:13:36;;;;;;;16.08;8.52;;;;;;;7.11;96.25;100011.56;5031882;28;20036;-42
2022/11/30 01:16:08;;;;;;;13.63;8.02;;;;;;;6.78;95.11;100014.38;5032217;28;20025;-42
2022/11/30 01:18:36;;;;;;;12.07;7.78;;;;;;;6.87;94.60;100015.16;5030713;28;20510;-43
2022/11/30 01:21:05;;;;;;;15.10;8.80;;;;;;;6.80;95.65;100015.03;5031532;28;20102;-43
2022/11/30 01:23:30;;;;;;;15.23;8.68;;;;;;;6.82;96.14;100009.59;5031664;28;20100;-43
2022/11/30 01:25:56;;;;;;;13.25;7.63;;;;;;;6.78;96.72;100014.38;5031341;28;20136;-43
2022/11/30 01:28:21;;;;;;;14.07;8.40;;;;;;;6.77;96.10;100014.56;5031530;28;20033;-43
2022/11/30 01:31:03;;;;;;;15.35;8.60;;;;;;;6.85;97.66;100015.34;5031511;28;20025;-43
2022/11/30 01:33:28;;;;;;;15.07;8.55;;;;;;;6.87;97.21;100009.06;5031588;28;20039;-43
2022/11/30 01:36:03;;;;;;;13.82;8.45;;;;;;;6.93;96.51;100008.34;5031562;28;20100;-43
2022/11/30 01:38:37;;;;;;;12.80;7.72;;;;;;;6.85;97.06;100014.50;5031488;28;20430;-43
2022/11/30 01:41:03;;;;;;;11.80;7.55;;;;;;;6.79;97.03;100008.09;5031498;28;20069;-43
2022/11/30 01:43:44;;;;;;;9.80;6.13;;;;;;;6.63;96.18;100006.34;5031289;28;20030;-43
2022/11/30 01:46:21;;;;;;;9.45;5.93;;;;;;;6.68;97.15;100005.00;5031279;28;20041;-43
2022/11/30 01:49:01;;;;;;;9.65;6.13;;;;;;;6.80;97.68;99996.53;5031509;28;20037;-43
2022/11/30 01:51:36;;;;;;;9.70;6.00;;;;;;;6.81;97.80;100000.00;5031793;28;20037;-43
2022/11/30 01:54:04;;;;;;;9.13;5.90;;;;;;;6.82;97.14;99996.34;5031009;28;20064;-43
2022/11/30 01:56:30;;;;;;;8.60;5.38;;;;;;;6.75;97.02;99996.22;5031057;28;20033;-43
2022/11/30 01:58:56;;;;;;;9.02;5.38;;;;;;;6.74;95.96;99991.94;5030993;28;20029;-43
2022/11/30 02:01:22;;;;;;;8.65;5.50;;;;;;;6.80;95.87;99998.34;5030899;28;20140;-42
2022/11/30 02:04:06;;;;;;;9.38;5.82;;;;;;;6.99;95.91;99997.09;5030945;28;20104;-42
2022/11/30 02:06:32;;;;;;;10.25;6.00;;;;;;;6.96;96.19;99994.78;5030950;28;20555;-42
2022/11/30 02:08:57;;;;;;;9.95;6.70;;;;;;;6.88;95.43;99990.38;5030976;28;20025;-42
2022/11/30 02:11:26;;;;;;;9.75;6.15;;;;;;;7.11;95.87;99994.88;5030810;28;20030;-42
2022/11/30 02:14:16;;;;;;;10.60;6.93;;;;;;;6.88;95.71;99982.44;5030965;28;20025;-42
2022/11/30 02:17:09;;;;;;;9.90;6.63;;;;;;;6.81;96.70;99990.22;5030620;28;20044;-42
2022/11/30 02:19:56;;;;;;;12.52;6.97;;;;;;;6.87;97.01;99986.06;5030757;28;20464;-42
2022/11/30 02:22:57;;;;;;;9.93;6.50;;;;;;;6.85;97.14;99980.13;5030669;28;20079;-43
2022/11/30 02:25:35;;;;;;;11.05;6.90;;;;;;;6.92;97.64;99991.66;5030538;28;20057;-42
2022/11/30 02:28:14;;;;;;;10.40;5.93;;;;;;;6.89;96.66;99986.72;5030393;28;20044;-42
2022/11/30 02:30:42;;;;;;;7.93;5.30;;;;;;;6.89;96.75;99989.34;5030198;28;20033;-42
2022/11/30 02:33:22;;;;;;;8.70;5.20;;;;;;;6.71;96.80;99978.22;5030629;28;20485;-43
2022/11/30 02:35:51;;;;;;;8.37;5.30;;;;;;;6.80;95.65;99993.06;5031019;28;20033;-44
2022/11/30 02:38:21;;;;;;;6.57;4.47;;;;;;;6.76;96.22;99997.03;5030676;28;21397;-43
2022/11/30 02:40:46;;;;;;;7.00;4.70;;;;;;;6.76;95.80;99995.22;5030459;28;20034;-43
2022/11/30 02:43:13;;;;;;;5.65;4.18;;;;;;;6.72;94.98;100001.88;5030552;28;20031;-43
2022/11/30 02:45:55;;;;;;;7.43;4.82;;;;;;;6.85;95.72;99998.63;5030562;28;20112;-43
2022/11/30 02:48:31;;;;;;;7.25;4.78;;;;;;;6.91;96.39;99995.31;5030666;28;20025;-43
2022/11/30 02:51:00;;;;;;;7.03;4.55;;;;;;;6.93;95.11;100003.91;5030765;28;20029;-43
2022/11/30 02:53:26;;;;;;;6.03;4.53;;;;;;;6.69;95.02;100004.84;5030586;28;20061;-43
2022/11/30 02:55:53;;;;;;;8.13;4.88;;;;;;;6.64;96.66;99996.59;5030310;28;20068;-42
2022/11/30 02:58:20;;;;;;;7.88;5.15;;;;;;;6.81;96.84;100002.63;5030300;28;20033;-42
2022/11/30 03:00:46;;;;;;;6.90;4.65;;;;;;;6.75;96.39;100005.97;5030366;28;20029;-42
2022/11/30 03:03:11;;;;;;;7.50;5.28;;;;;;;6.84;95.62;100003.13;5030450;28;20026;-42
2022/11/30 03:05:37;;;;;;;8.85;5.45;;;;;;;6.76;96.46;99999.66;5030496;28;20112;-42
2022/11/30 03:08:02;;;;;;;8.18;5.45;;;;;;;6.75;96.09;100003.31;5030013;28;20506;-42
2022/11/30 03:10:27;;;;;;;7.75;5.35;;;;;;;6.67;96.80;100004.19;5030089;28;20033;-42
2022/11/30 03:12:57;;;;;;;8.85;5.70;;;;;;;6.76;97.24;100007.59;5030265;28;20030;-42
2022/11/30 03:15:22;;;;;;;8.70;5.40;;;;;;;6.65;96.90;100007.00;5030392;28;20034;-42
2022/11/30 03:17:48;;;;;;;8.82;5.63;;;;;;;6.93;98.13;100009.19;5029999;28;20033;-42
2022/11/30 03:20:13;;;;;;;10.00;6.10;;;;;;;6.97;96.40;100005.22;5030249;28;20120;-42
2022/11/30 03:22:38;;;;;;;8.32;5.57;;;;;;;6.98;95.59;100009.47;5030295;28;20041;-42
2022/11/30 03:25:04;;;;;;;9.80;5.63;;;;;;;6.91;95.54;100010.34;5029812;28;20084;-42
2022/11/30 03:27:30;;;;;;;8.30;5.65;;;;;;;6.77;96.35;100010.09;5029907;28;20155;-42
2022/11/30 03:29:55;;;;;;;8.80;5.80;;;;;;;6.87;95.76;100012.50;5030115;28;20053;-42
2022/11/30 03:32:20;;;;;;;10.02;6.47;;;;;;;6.99;97.77;100008.50;5030180;28;20132;-41
2022/11/30 03:34:46;;;;;;;7.88;5.72;;;;;;;6.81;97.38;100007.91;5029971;28;20025;-42
2022/11/30 03:37:11;;;;;;;10.32;6.30;;;;;;;7.03;97.82;100007.16;5030166;28;20079;-42
2022/11/30 03:39:37;;;;;;;10.18;6.32;;;;;;;7.06;96.58;100005.97;5029716;28;20049;-42
2022/11/30 03:42:02;;;;;;;7.65;5.80;;;;;;;6.84;96.92;100010.22;5031274;28;20028;-41
2022/11/30 03:44:28;;;;;;;11.20;6.88;;;;;;;6.86;99.75;100013.53;5033556;28;20596;-42
2022/11/30 03:46:54;;;;;;;10.50;6.53;;;;;;;6.90;98.51;100014.81;5033538;28;20438;-46
2022/11/30 03:49:19;;;;;;;9.75;6.57;;;;;;;7.02;97.99;100015.25;5034343;28;20029;-43
2022/11/30 03:51:45;;;;;;;9.70;6.50;;;;;;;7.07;96.81;100020.03;5033951;28;20036;-45
2022/11/30 03:54:10;;;;;;;11.18;6.68;;;;;;;7.10;95.69;100019.69;5034032;28;20052;-43
2022/11/30 03:56:35;;;;;;;9.43;6.20;;;;;;;7.05;95.18;100018.38;5034047;28;20105;-43
2022/11/30 03:59:01;;;;;;;11.13;7.07;;;;;;;7.08;95.61;100013.75;5034218;28;20409;-44
2022/11/30 04:01:26;;;;;;;9.30;6.05;;;;;;;6.96;96.46;100013.31;5033475;28;20474;-44
2022/11/30 04:03:53;;;;;;;10.05;6.38;;;;;;;6.95;97.58;100012.50;5033957;28;20453;-43
2022/11/30 04:06:20;;;;;;;9.55;6.40;;;;;;;6.95;95.66;99999.28;5033417;28;20105;-47
2022/11/30 04:08:45;;;;;;;11.70;6.38;;;;;;;6.94;96.49;100016.13;5033274;28;20026;-41
2022/11/30 04:11:11;;;;;;;9.88;6.30;;;;;;;7.05;97.12;100021.03;5033154;28;20112;-43
2022/11/30 04:13:38;;;;;;;21.08;13.40;;;;;;;6.88;96.62;100029.25;5032939;28;20083;-42
2022/11/30 04:16:04;;;;;;;46.72;25.52;;;;;;;6.91;99.14;100024.44;5032886;28;20036;-42
2022/11/30 04:18:31;;;;;;;48.83;25.42;;;;;;;6.89;97.94;100023.75;5031611;28;20068;-42
2022/11/30 04:20:58;;;;;;;32.33;17.58;;;;;;;7.02;96.64;100018.72;5033108;28;20030;-43
2022/11/30 04:23:25;;;;;;;10.07;7.15;;;;;;;7.07;97.45;100028.00;5033141;28;20029;-43
2022/11/30 04:25:51;;;;;;;10.85;7.15;;;;;;;7.16;96.48;100030.41;5032729;28;20411;-43
2022/11/30 04:28:17;;;;;;;8.80;6.38;;;;;;;7.17;96.18;100029.41;5032740;28;20124;-42
2022/11/30 04:30:42;;;;;;;9.27;6.55;;;;;;;7.04;96.80;100034.44;5032667;28;20111;-43
2022/11/30 04:33:08;;;;;;;9.13;5.90;;;;;;;6.99;98.21;100031.50;5032935;28;20218;-43
2022/11/30 04:35:40;;;;;;;8.07;5.78;;;;;;;7.14;98.17;100026.28;5032881;28;20030;-43
2022/11/30 04:38:06;;;;;;;12.98;7.82;;;;;;;7.05;96.59;100028.16;5032754;28;20040;-43
2022/11/30 04:40:31;;;;;;;10.10;6.63;;;;;;;7.25;97.92;100031.16;5032622;28;20033;-44
2022/11/30 04:42:56;;;;;;;8.73;5.93;;;;;;;7.14;97.99;100032.41;5032733;28;20140;-42
2022/11/30 04:45:22;;;;;;;9.65;6.38;;;;;;;7.08;96.95;100026.97;5032361;28;20469;-42
2022/11/30 04:47:47;;;;;;;10.25;6.45;;;;;;;7.16;97.71;100030.41;5032182;28;20025;-42
2022/11/30 04:50:13;;;;;;;8.30;5.70;;;;;;;7.21;97.59;100032.53;5032302;28;20028;-42
2022/11/30 04:52:39;;;;;;;10.68;6.57;;;;;;;7.28;97.46;100028.19;5031902;28;20052;-42
2022/11/30 04:55:05;;;;;;;10.13;6.40;;;;;;;7.27;97.71;100026.53;5032296;28;20038;-42
2022/11/30 04:57:30;;;;;;;9.50;5.78;;;;;;;6.96;98.73;100029.19;5032097;28;20026;-42
2022/11/30 04:59:56;;;;;;;9.38;6.30;;;;;;;7.20;98.36;100026.41;5032176;28;20026;-42
2022/11/30 05:02:21;;;;;;;9.10;5.60;;;;;;;6.98;98.76;100027.19;5032354;28;20021;-43
2022/11/30 05:04:47;;;;;;;8.48;5.50;;;;;;;6.98;98.42;100033.31;5032054;28;20029;-43
2022/11/30 05:07:12;;;;;;;23.45;13.80;;;;;;;7.24;98.58;100034.84;5031687;28;20021;-43
2022/11/30 05:09:37;;;;;;;11.02;6.50;;;;;;;7.12;98.88;100038.84;5032163;28;20477;-43
2022/11/30 05:12:03;;;;;;;9.40;5.88;;;;;;;7.32;97.62;100036.59;5032356;28;20037;-42
2022/11/30 05:14:29;;;;;;;8.65;4.88;;;;;;;7.48;97.20;100039.13;5032256;28;20452;-43
2022/11/30 05:16:54;;;;;;;6.95;5.13;;;;;;;7.47;96.37;100045.44;5031901;28;20090;-42
2022/11/30 05:19:19;;;;;;;8.82;5.55;;;;;;;7.50;97.65;100041.59;5031926;28;20049;-43
2022/11/30 05:21:45;;;;;;;7.88;5.40;;;;;;;7.45;96.59;100047.44;5031243;28;20022;-42
2022/11/30 05:24:10;;;;;;;8.18;5.05;;;;;;;7.35;96.79;100049.47;5031801;28;20064;-43
2022/11/30 05:26:36;;;;;;;7.68;5.10;;;;;;;7.50;96.75;100061.00;5031527;28;20030;-42
2022/11/30 05:29:03;;;;;;;7.07;4.72;;;;;;;7.50;98.57;100060.16;5031204;28;20156;-43
2022/11/30 05:31:29;;;;;;;5.65;3.85;;;;;;;7.44;97.85;100054.56;5031641;28;20029;-42
2022/11/30 05:33:54;;;;;;;5.47;3.75;;;;;;;7.50;96.32;100060.16;5030510;28;20032;-42
2022/11/30 05:36:20;;;;;;;4.97;3.45;;;;;;;7.73;95.32;100062.78;5030869;28;20489;-42
2022/11/30 05:38:45;;;;;;;6.50;3.85;;;;;;;7.89;94.55;100067.97;5031928;28;20478;-43
2022/11/30 05:41:11;;;;;;;6.63;4.70;;;;;;;7.93;93.71;100069.28;5031592;28;20417;-44
2022/11/30 05:43:36;;;;;;;6.07;3.88;;;;;;;7.80;93.98;100074.34;5031477;28;20338;-42
2022/11/30 05:46:04;;;;;;;5.65;3.80;;;;;;;7.83;92.82;100068.69;5030904;28;20029;-43
2022/11/30 05:48:29;;;;;;;6.28;4.28;;;;;;;7.91;93.71;100089.00;5030798;28;20032;-42
2022/11/30 05:51:03;;;;;;;5.78;3.90;;;;;;;7.58;95.03;100087.41;5030362;28;20021;-42
2022/11/30 05:53:28;;;;;;;6.00;4.32;;;;;;;7.77;94.84;100086.13;5030490;28;20136;-42
2022/11/30 05:55:54;;;;;;;6.32;4.43;;;;;;;7.55;95.51;100089.59;5029192;28;20126;-43
2022/11/30 05:58:19;;;;;;;6.68;5.18;;;;;;;7.69;95.94;100088.84;5030168;28;20043;-42
2022/11/30 06:00:44;;;;;;;10.13;5.15;;;;;;;7.63;95.35;100078.94;5030557;28;20087;-42
2022/11/30 06:03:10;;;;;;;6.78;5.25;;;;;;;7.82;95.49;100086.44;5030266;28;20108;-42
2022/11/30 06:05:35;;;;;;;7.90;4.45;;;;;;;7.51;95.59;100078.50;5030433;28;20021;-42
2022/11/30 06:08:01;;;;;;;8.68;5.20;;;;;;;7.61;96.12;100080.94;5031215;28;20033;-42
2022/11/30 06:10:26;;;;;;;7.72;5.03;;;;;;;7.54;96.84;100079.97;5029966;28;20506;-42
2022/11/30 06:12:51;;;;;;;8.30;4.57;;;;;;;7.36;97.28;100085.56;5031800;28;20027;-43
2022/11/30 06:15:17;;;;;;;6.40;4.32;;;;;;;7.22;98.22;100087.13;5031154;28;20026;-43
2022/11/30 06:17:42;;;;;;;6.22;4.50;;;;;;;7.49;97.64;100090.28;5031040;28;20052;-41
2022/11/30 06:20:08;;;;;;;5.78;4.50;;;;;;;7.37;98.84;100085.38;5030828;28;20047;-42
2022/11/30 06:22:34;;;;;;;5.95;4.38;;;;;;;7.48;97.82;100093.94;5030641;28;20036;-42
2022/11/30 06:24:59;;;;;;;5.75;4.03;;;;;;;7.26;98.46;100092.91;5029389;28;20430;-42
2022/11/30 06:27:28;;;;;;;4.25;3.30;;;;;;;7.12;98.59;100099.72;5030222;28;20025;-42
2022/11/30 06:29:53;;;;;;;7.33;4.27;;;;;;;7.11;100.00;100108.69;5030415;28;20017;-42
2022/11/30 06:32:19;;;;;;;6.13;4.20;;;;;;;7.24;99.87;100111.59;5030401;28;20272;-42
2022/11/30 06:34:44;;;;;;;10.27;4.13;;;;;;;7.21;99.37;100101.34;5030124;28;20101;-42
2022/11/30 06:37:10;;;;;;;5.10;4.15;;;;;;;7.33;99.72;100107.06;5030231;28;20423;-41
2022/11/30 06:39:35;;;;;;;5.53;4.03;;;;;;;7.14;98.79;100110.97;5030065;28;20025;-41
2022/11/30 06:42:00;;;;;;;5.20;4.13;;;;;;;7.26;98.90;100106.13;5030736;28;20112;-43
2022/11/30 06:44:26;;;;;;;5.47;4.25;;;;;;;7.22;98.58;100098.53;5030631;28;20550;-43
2022/11/30 06:46:51;;;;;;;4.78;3.88;;;;;;;7.32;98.72;100103.59;5030567;28;20032;-42
2022/11/30 06:49:17;;;;;;;4.55;3.72;;;;;;;7.30;98.38;100112.75;5030640;28;20527;-42
2022/11/30 06:51:42;;;;;;;6.93;4.32;;;;;;;7.33;98.75;100107.06;5030706;28;20121;-43
2022/11/30 06:54:08;;;;;;;6.35;4.10;;;;;;;7.12;98.38;100108.53;5030591;28;20021;-42
2022/11/30 06:56:33;;;;;;;6.90;4.40;;;;;;;7.19;98.82;100098.06;5030212;28;20057;-42
2022/11/30 06:58:59;;;;;;;5.72;4.38;;;;;;;7.20;98.77;100115.59;5030194;28;20108;-43
2022/11/30 07:01:24;;;;;;;5.25;4.10;;;;;;;7.23;97.78;100110.78;5030219;28;20021;-43
2022/11/30 07:03:50;;;;;;;5.85;3.95;;;;;;;7.28;97.95;100118.19;5030240;28;20017;-44
2022/11/30 07:06:15;;;;;;;8.00;4.13;;;;;;;7.37;97.93;100109.22;5030306;28;20109;-44
2022/11/30 07:08:42;;;;;;;5.57;3.83;;;;;;;7.39;96.89;100131.06;5030023;28;20420;-43
2022/11/30 07:11:10;;;;;;;5.15;3.72;;;;;;;7.37;96.85;100124.28;5029927;28;20453;-43
2022/11/30 07:13:36;;;;;;;5.45;3.60;;;;;;;7.24;96.78;100123.00;5030178;28;20022;-43
2022/11/30 07:16:03;;;;;;;6.43;3.97;;;;;;;7.38;96.60;100112.69;5031891;28;20029;-43
2022/11/30 07:18:29;;;;;;;5.20;3.88;;;;;;;7.29;96.36;100119.88;5033994;28;20033;-43
2022/11/30 07:20:57;;;;;;;5.45;4.20;;;;;;;7.51;96.21;100117.41;5033967;28;20079;-43
2022/11/30 07:26:06;;;;;;;4.97;3.70;;;;;;;7.37;96.18;100114.50;5033738;28;20537;-44
2022/11/30 07:28:35;;;;;;;5.70;3.42;;;;;;;7.24;96.05;100125.66;5033961;28;20030;-43
2022/11/30 07:31:00;;;;;;;5.40;3.58;;;;;;;7.43;96.28;100131.53;5033913;28;20456;-43
2022/11/30 07:33:26;;;;;;;4.80;3.70;;;;;;;7.57;95.56;100122.03;5033782;28;20033;-42
2022/11/30 07:35:52;;;;;;;4.90;3.92;;;;;;;7.64;95.30;100125.63;5033765;28;20029;-43
2022/11/30 07:38:18;;;;;;;5.32;3.70;;;;;;;7.45;94.85;100121.59;5033974;28;20090;-43
2022/11/30 07:40:43;;;;;;;5.03;3.58;;;;;;;7.65;94.62;100132.56;5033128;28;20112;-43
2022/11/30 07:43:09;;;;;;;5.10;3.65;;;;;;;7.49;94.92;100130.00;5033580;28;20037;-43
2022/11/30 07:45:34;;;;;;;5.00;3.50;;;;;;;7.38;94.52;100134.69;5033844;28;20495;-42
2022/11/30 07:47:59;;;;;;;8.68;4.13;;;;;;;7.49;95.39;100137.97;5033361;28;20036;-43
2022/11/30 07:50:25;;;;;;;7.03;4.18;;;;;;;7.59;94.83;100130.59;5033334;28;20028;-42
2022/11/30 07:52:50;;;;;;;5.43;3.85;;;;;;;7.52;94.54;100145.53;5033552;28;20025;-42
2022/11/30 07:55:16;;;;;;;4.05;3.53;;;;;;;7.64;94.30;100139.69;5033513;28;20107;-42
2022/11/30 07:57:42;;;;;;;3.80;3.35;;;;;;;7.57;93.64;100143.19;5033557;28;20036;-43
2022/11/30 08:00:08;;;;;;;4.40;3.80;;;;;;;7.76;93.55;100140.09;5033564;28;20137;-43
2022/11/30 08:02:33;;;;;;;5.28;3.40;;;;;;;7.59;94.05;100142.03;5033303;28;20025;-43
2022/11/30 08:04:59;;;;;;;4.00;3.50;;;;;;;7.62;94.24;100148.81;5033574;28;20026;-43
2022/11/30 08:07:24;;;;;;;4.53;3.40;;;;;;;7.39;94.80;100139.00;5033499;28;20025;-42
2022/11/30 08:09:50;;;;;;;3.80;3.20;;;;;;;7.60;93.78;100138.38;5033780;28;20100;-41
2022/11/30 08:12:16;;;;;;;4.18;3.17;;;;;;;7.51;94.33;100130.66;5033058;28;20494;-42
2022/11/30 08:14:41;;;;;;;4.68;3.05;;;;;;;7.49;93.54;100148.56;5033006;28;20029;-42
2022/11/30 08:17:08;;;;;;;4.60;3.40;;;;;;;7.50;95.05;100143.09;5032035;28;20029;-43
2022/11/30 08:19:33;;;;;;;3.72;3.13;;;;;;;7.21;96.07;100139.22;5032964;28;20433;-42
2022/11/30 08:21:59;;;;;;;5.22;3.53;;;;;;;7.39;95.98;100140.81;5032925;28;20498;-42
2022/11/30 08:24:24;;;;;;;4.18;3.22;;;;;;;7.66;94.53;100144.81;5032930;28;20049;-42
2022/11/30 08:26:51;;;;;;;4.47;3.17;;;;;;;7.55;94.74;100142.56;5032808;28;20033;-42
2022/11/30 08:29:17;;;;;;;4.07;3.10;;;;;;;7.44;94.32;100131.38;5032387;28;20409;-43
2022/11/30 08:31:43;;;;;;;5.13;3.30;;;;;;;7.54;93.82;100132.94;5033035;28;20030;-42
2022/11/30 08:34:11;;;;;;;5.20;3.15;;;;;;;7.47;94.25;100148.72;5032903;28;20105;-42
2022/11/30 08:36:38;;;;;;;3.78;3.03;;;;;;;7.53;94.11;100134.78;5032871;28;20052;-43
2022/11/30 08:39:04;;;;;;;7.07;2.90;;;;;;;7.60;93.18;100129.63;5032664;28;20034;-42
2022/11/30 08:41:31;;;;;;;4.63;3.22;;;;;;;7.75;92.03;100133.16;5032441;28;20087;-42
2022/11/30 08:43:56;;;;;;;4.97;3.45;;;;;;;7.90;91.61;100127.09;5032396;28;20116;-43
2022/11/30 08:46:23;;;;;;;4.57;3.53;;;;;;;7.70;91.65;100122.28;5032408;28;20112;-42
2022/11/30 08:48:49;;;;;;;6.10;3.58;;;;;;;7.65;92.17;100127.25;5032293;28;20547;-42
2022/11/30 08:51:16;;;;;;;5.85;3.75;;;;;;;7.56;93.46;100120.38;5032628;28;20470;-43
2022/11/30 08:53:42;;;;;;;5.20;3.38;;;;;;;7.63;92.91;100123.97;5032272;28;20061;-42
2022/11/30 08:56:16;;;;;;;4.90;3.58;;;;;;;7.77;92.54;100131.16;5032456;28;20060;-44
2022/11/30 08:58:41;;;;;;;5.60;3.80;;;;;;;7.75;92.24;100130.53;5032423;28;20033;-42
2022/11/30 09:01:13;;;;;;;5.28;3.70;;;;;;;7.47;93.86;100124.06;5032025;28;20033;-42
2022/11/30 09:03:39;;;;;;;7.43;3.83;;;;;;;7.47;93.37;100118.78;5031980;28;20036;-43
2022/11/30 09:06:12;;;;;;;7.95;4.28;;;;;;;7.53;94.37;100131.31;5032254;28;20025;-43
2022/11/30 09:08:38;;;;;;;5.85;3.90;;;;;;;7.70;93.29;100124.91;5032054;28;20032;-42
2022/11/30 09:11:15;;;;;;;4.72;3.70;;;;;;;7.60;92.97;100127.78;5032052;28;20022;-42
2022/11/30 09:13:42;;;;;;;5.70;3.90;;;;;;;7.80;91.76;100130.81;5032218;28;20049;-43
2022/11/30 09:16:09;;;;;;;5.05;3.83;;;;;;;7.64;92.42;100136.22;5032037;28;20040;-43
2022/11/30 09:18:35;;;;;;;5.78;3.70;;;;;;;7.71;92.54;100131.88;5031815;28;20083;-42
2022/11/30 09:21:03;;;;;;;4.68;3.38;;;;;;;7.80;91.72;100122.84;5031708;28;20112;-43
2022/11/30 09:23:29;;;;;;;6.03;3.85;;;;;;;7.72;92.55;100122.91;5031951;28;20485;-43
2022/11/30 09:25:59;;;;;;;6.05;3.80;;;;;;;7.80;92.10;100114.09;5031772;28;20084;-44
2022/11/30 09:28:26;;;;;;;6.05;4.18;;;;;;;7.70;93.28;100116.97;5031798;28;20067;-42
2022/11/30 09:30:52;;;;;;;6.22;3.55;;;;;;;7.58;92.25;100113.91;5031730;28;20040;-42
2022/11/30 09:33:18;;;;;;;6.82;3.92;;;;;;;7.48;93.69;100117.75;5031444;28;20527;-42
2022/11/30 09:35:44;;;;;;;7.68;4.60;;;;;;;7.73;94.67;100121.06;5031244;28;20117;-43
2022/11/30 09:38:10;;;;;;;4.93;3.70;;;;;;;7.64;93.88;100118.50;5031622;28;20029;-43
2022/11/30 09:40:39;;;;;;;6.82;4.18;;;;;;;7.78;93.87;100103.66;5030461;28;20091;-42
2022/11/30 09:43:26;;;;;;;6.17;3.80;;;;;;;7.53;94.03;100118.06;5031442;28;20032;-42
2022/11/30 09:45:56;;;;;;;7.32;4.35;;;;;;;7.65;95.54;100111.38;5031242;28;20029;-43
2022/11/30 09:48:49;;;;;;;5.93;4.50;;;;;;;7.61;96.50;100108.22;5031203;28;20051;-42
2022/11/30 09:51:44;;;;;;;6.38;4.70;;;;;;;7.79;94.67;100117.75;5031488;28;20053;-43
2022/11/30 09:54:15;;;;;;;6.20;4.50;;;;;;;7.72;95.65;100109.66;5031038;28;20048;-42
2022/11/30 09:56:43;;;;;;;5.63;4.45;;;;;;;7.55;95.81;100116.88;5031127;28;20524;-43
2022/11/30 09:59:25;;;;;;;6.50;4.68;;;;;;;7.82;95.70;100102.34;5031194;28;20474;-42
2022/11/30 10:01:50;;;;;;;7.07;4.88;;;;;;;7.66;96.01;100113.03;5031110;28;20056;-43
2022/11/30 10:04:22;;;;;;;7.50;5.38;;;;;;;7.99;95.64;100115.44;5031115;28;20026;-44
2022/11/30 10:07:01;;;;;;;7.55;5.10;;;;;;;7.61;94.79;100113.53;5031052;28;20030;-43
2022/11/30 10:09:43;;;;;;;6.65;5.10;;;;;;;7.59;95.72;100114.72;5030844;28;20117;-42
2022/11/30 10:12:41;;;;;;;7.60;5.60;;;;;;;7.70;95.47;100119.63;5030810;28;20025;-43
2022/11/30 10:15:16;;;;;;;8.93;5.85;;;;;;;7.86;95.02;100117.84;5030403;28;20103;-42
2022/11/30 10:17:53;;;;;;;8.70;5.70;;;;;;;7.76;94.84;100112.78;5030901;28;20111;-42
2022/11/30 10:20:59;;;;;;;6.97;5.07;;;;;;;7.60;94.46;100114.56;5029284;28;20026;-43
2022/11/30 10:23:40;;;;;;;7.53;5.53;;;;;;;7.57;96.22;100116.72;5030802;28;20265;-41
2022/11/30 10:26:14;;;;;;;8.77;5.82;;;;;;;8.01;94.65;100121.38;5030726;28;20053;-43
2022/11/30 10:28:42;;;;;;;7.47;5.40;;;;;;;8.01;92.57;100122.22;5031285;28;20080;-43
2022/11/30 10:31:13;;;;;;;7.53;5.35;;;;;;;7.88;93.62;100113.19;5030607;28;20056;-42
2022/11/30 10:33:50;;;;;;;7.65;5.47;;;;;;;7.74;93.83;100115.63;5030937;28;20111;-42
2022/11/30 10:36:42;;;;;;;7.72;5.65;;;;;;;7.73;95.56;100116.63;5030864;28;20040;-42
2022/11/30 10:39:23;;;;;;;8.45;5.90;;;;;;;7.97;94.92;100115.63;5030631;28;20029;-42
2022/11/30 10:42:03;;;;;;;7.00;5.10;;;;;;;7.96;93.97;100115.81;5030556;28;20034;-43
2022/11/30 10:44:38;;;;;;;7.28;5.53;;;;;;;7.96;93.73;100113.16;5030677;28;20414;-43
2022/11/30 10:47:13;;;;;;;7.10;5.00;;;;;;;8.07;93.20;100117.19;5030736;28;20029;-43
2022/11/30 10:49:44;;;;;;;8.35;5.45;;;;;;;8.05;93.37;100119.22;5030462;28;20087;-42
2022/11/30 10:52:14;;;;;;;7.07;5.32;;;;;;;8.19;92.99;100123.75;5034300;28;20021;-42
2022/11/30 10:54:39;;;;;;;8.70;5.20;;;;;;;7.76;94.53;100120.75;5035000;28;20044;-42
2022/11/30 10:57:06;;;;;;;9.00;5.65;;;;;;;7.85;94.97;100105.63;5034663;28;20030;-42
2022/11/30 10:59:46;;;;;;;7.70;5.25;;;;;;;8.14;92.99;100116.31;5034616;28;20021;-43
2022/11/30 11:02:38;;;;;;;8.75;5.47;;;;;;;8.07;92.81;100110.06;5034599;28;20029;-44
2022/11/30 11:05:19;;;;;;;7.93;5.32;;;;;;;8.02;92.52;100109.78;5034428;28;20036;-42
2022/11/30 11:07:50;;;;;;;7.05;4.88;;;;;;;7.86;92.82;100109.91;5034720;28;20037;-44
2022/11/30 11:10:20;;;;;;;6.93;5.00;;;;;;;8.01;93.18;100103.69;5034460;28;20124;-43
2022/11/30 11:12:49;;;;;;;7.15;4.97;;;;;;;7.98;92.54;100103.22;5033840;28;20026;-44
2022/11/30 11:15:27;;;;;;;10.63;6.25;;;;;;;7.98;93.06;100103.22;5034212;28;20069;-44
2022/11/30 11:18:11;;;;;;;7.82;5.65;;;;;;;7.71;92.92;100094.78;5034103;28;20386;-44
2022/11/30 11:20:42;;;;;;;7.85;5.28;;;;;;;7.91;93.31;100089.81;5033475;28;20034;-45
2022/11/30 11:23:47;;;;;;;7.80;5.40;;;;;;;7.87;92.70;100085.88;5033611;28;20104;-45
2022/11/30 11:26:27;;;;;;;10.93;6.15;;;;;;;8.01;92.17;100086.94;5031528;28;20548;-44
2022/11/30 11:28:55;;;;;;;10.00;6.17;;;;;;;7.79;92.52;100086.78;5031566;28;20508;-44
2022/11/30 11:31:45;;;;;;;9.88;6.57;;;;;;;8.07;93.01;100082.75;5032915;28;20049;-47
2022/11/30 11:34:25;;;;;;;9.55;6.30;;;;;;;7.89;91.97;100083.88;5033710;28;20501;-43
2022/11/30 11:37:20;;;;;;;11.68;7.40;;;;;;;8.01;92.47;100087.78;5033769;28;20088;-45
2022/11/30 11:39:59;;;;;;;10.40;6.82;;;;;;;8.07;92.00;100080.91;5033262;28;20095;-43
2022/11/30 11:42:28;;;;;;;9.38;6.32;;;;;;;7.86;93.00;100083.41;5033563;28;20116;-44